createdAt,value
2023-05-04T00:00:58.000Z,0
2023-05-04T00:02:02.000Z,0
2023-05-04T00:03:06.000Z,0
2023-05-04T00:04:10.000Z,0
2023-05-04T00:05:14.000Z,0
2023-05-04T00:06:18.000Z,0
2023-05-04T00:07:22.000Z,0
2023-05-04T00:08:27.000Z,0
2023-05-04T00:09:31.000Z,0
2023-05-04T00:10:35.000Z,0
2023-05-04T00:11:39.000Z,0
2023-05-04T00:12:43.000Z,0
2023-05-04T00:13:47.000Z,0
2023-05-04T00:14:51.000Z,0
2023-05-04T00:15:56.000Z,0
2023-05-04T00:17:00.000Z,0
2023-05-04T00:18:04.000Z,0
2023-05-04T00:19:08.000Z,0
2023-05-04T00:20:12.000Z,0
2023-05-04T00:21:16.000Z,0
2023-05-04T00:22:20.000Z,0
2023-05-04T00:23:25.000Z,0
2023-05-04T00:24:29.000Z,0
2023-05-04T00:25:33.000Z,0
2023-05-04T00:26:37.000Z,0
2023-05-04T00:27:41.000Z,0
2023-05-04T00:28:45.000Z,0
2023-05-04T00:29:49.000Z,0
2023-05-04T00:30:53.000Z,0
2023-05-04T00:31:58.000Z,0
2023-05-04T00:33:02.000Z,0
2023-05-04T00:34:06.000Z,0
2023-05-04T00:35:10.000Z,0
2023-05-04T00:36:14.000Z,0
2023-05-04T00:37:18.000Z,0
2023-05-04T00:38:22.000Z,0
2023-05-04T00:39:26.000Z,0
2023-05-04T00:40:31.000Z,0
2023-05-04T00:41:35.000Z,0
2023-05-04T00:42:39.000Z,0
2023-05-04T00:43:43.000Z,0
2023-05-04T00:44:47.000Z,0
2023-05-04T00:45:51.000Z,0
2023-05-04T00:46:55.000Z,0
2023-05-04T00:48:00.000Z,0
2023-05-04T00:49:04.000Z,0
2023-05-04T00:50:08.000Z,0
2023-05-04T00:51:12.000Z,0
2023-05-04T00:52:16.000Z,0
2023-05-04T00:53:20.000Z,0
2023-05-04T00:54:24.000Z,0
2023-05-04T00:55:29.000Z,0
2023-05-04T00:56:33.000Z,0
2023-05-04T00:57:37.000Z,0
2023-05-04T00:58:41.000Z,0
2023-05-04T00:59:45.000Z,0
2023-05-04T01:00:49.000Z,0
2023-05-04T01:01:54.000Z,0
2023-05-04T01:02:58.000Z,0
2023-05-04T01:04:02.000Z,0
2023-05-04T01:05:06.000Z,0
2023-05-04T01:06:10.000Z,0
2023-05-04T01:07:14.000Z,0
2023-05-04T01:08:19.000Z,0
2023-05-04T01:09:23.000Z,0
2023-05-04T01:10:27.000Z,0
2023-05-04T01:11:31.000Z,0
2023-05-04T01:12:35.000Z,0
2023-05-04T01:13:39.000Z,0
2023-05-04T01:14:43.000Z,0
2023-05-04T01:15:48.000Z,0
2023-05-04T01:16:52.000Z,0
2023-05-04T01:17:56.000Z,0
2023-05-04T01:19:00.000Z,0
2023-05-04T01:20:04.000Z,0
2023-05-04T01:21:08.000Z,0
2023-05-04T01:22:12.000Z,0
2023-05-04T01:23:17.000Z,0
2023-05-04T01:24:21.000Z,0
2023-05-04T01:25:25.000Z,0
2023-05-04T01:26:29.000Z,0
2023-05-04T01:27:33.000Z,0
2023-05-04T01:28:37.000Z,0
2023-05-04T01:29:41.000Z,0
2023-05-04T01:30:45.000Z,0
2023-05-04T01:31:50.000Z,0
2023-05-04T01:32:54.000Z,0
2023-05-04T01:33:58.000Z,0
2023-05-04T01:35:02.000Z,0
2023-05-04T01:36:06.000Z,0
2023-05-04T01:37:10.000Z,0
2023-05-04T01:38:14.000Z,0
2023-05-04T01:39:19.000Z,0
2023-05-04T01:40:23.000Z,0
2023-05-04T01:41:27.000Z,0
2023-05-04T01:42:31.000Z,0
2023-05-04T01:43:35.000Z,0
2023-05-04T01:44:39.000Z,0
2023-05-04T01:45:43.000Z,0
2023-05-04T01:46:48.000Z,0
2023-05-04T01:47:52.000Z,0
2023-05-04T01:48:56.000Z,0
2023-05-04T01:50:00.000Z,0
2023-05-04T01:51:04.000Z,0
2023-05-04T01:52:08.000Z,0
2023-05-04T01:53:12.000Z,0
2023-05-04T01:54:16.000Z,0
2023-05-04T01:55:21.000Z,0
2023-05-04T01:56:25.000Z,0
2023-05-04T01:57:29.000Z,0
2023-05-04T01:58:33.000Z,0
2023-05-04T01:59:37.000Z,0
2023-05-04T02:00:41.000Z,0
2023-05-04T02:01:45.000Z,0
2023-05-04T02:02:50.000Z,0
2023-05-04T02:03:54.000Z,0
2023-05-04T02:04:58.000Z,0
2023-05-04T02:06:02.000Z,0
2023-05-04T02:07:06.000Z,0
2023-05-04T02:08:10.000Z,0
2023-05-04T02:09:14.000Z,0
2023-05-04T02:10:19.000Z,0
2023-05-04T02:11:23.000Z,0
2023-05-04T02:12:27.000Z,0
2023-05-04T02:13:31.000Z,0
2023-05-04T02:14:35.000Z,0
2023-05-04T02:15:39.000Z,0
2023-05-04T02:16:43.000Z,0
2023-05-04T02:17:48.000Z,0
2023-05-04T02:18:52.000Z,0
2023-05-04T02:19:56.000Z,0
2023-05-04T02:21:00.000Z,0
2023-05-04T02:22:04.000Z,0
2023-05-04T02:23:08.000Z,0
2023-05-04T02:24:12.000Z,0
2023-05-04T02:25:16.000Z,0
2023-05-04T02:26:21.000Z,0
2023-05-04T02:27:25.000Z,0
2023-05-04T02:28:29.000Z,0
2023-05-04T02:29:33.000Z,0
2023-05-04T02:30:37.000Z,0
2023-05-04T02:31:41.000Z,0
2023-05-04T02:32:45.000Z,0
2023-05-04T02:33:49.000Z,0
2023-05-04T02:34:54.000Z,0
2023-05-04T02:35:58.000Z,0
2023-05-04T02:37:02.000Z,0
2023-05-04T02:38:06.000Z,0
2023-05-04T02:39:10.000Z,0
2023-05-04T02:40:14.000Z,0
2023-05-04T02:41:18.000Z,0
2023-05-04T02:42:22.000Z,0
2023-05-04T02:43:27.000Z,0
2023-05-04T02:44:31.000Z,0
2023-05-04T02:45:35.000Z,0
2023-05-04T02:46:39.000Z,0
2023-05-04T02:47:43.000Z,0
2023-05-04T02:48:47.000Z,0
2023-05-04T02:49:51.000Z,0
2023-05-04T02:50:55.000Z,0
2023-05-04T02:52:00.000Z,0
2023-05-04T02:53:04.000Z,0
2023-05-04T02:54:08.000Z,0
2023-05-04T02:55:12.000Z,0
2023-05-04T02:56:16.000Z,0
2023-05-04T02:57:20.000Z,0
2023-05-04T02:58:24.000Z,0
2023-05-04T02:59:29.000Z,0
2023-05-04T03:00:33.000Z,0
2023-05-04T03:01:37.000Z,0
2023-05-04T03:02:41.000Z,0
2023-05-04T03:03:45.000Z,0
2023-05-04T03:04:49.000Z,0
2023-05-04T03:05:54.000Z,0
2023-05-04T03:06:58.000Z,0
2023-05-04T03:08:02.000Z,0
2023-05-04T03:09:06.000Z,0
2023-05-04T03:10:11.000Z,0
2023-05-04T03:11:15.000Z,0
2023-05-04T03:12:19.000Z,0
2023-05-04T03:13:23.000Z,0
2023-05-04T03:14:27.000Z,0
2023-05-04T03:15:31.000Z,0
2023-05-04T03:16:35.000Z,0
2023-05-04T03:17:40.000Z,0
2023-05-04T03:18:44.000Z,0
2023-05-04T03:19:48.000Z,0
2023-05-04T03:20:52.000Z,0
2023-05-04T03:21:56.000Z,0
2023-05-04T03:23:00.000Z,1
2023-05-04T03:24:05.000Z,1
2023-05-04T03:25:09.000Z,1
2023-05-04T03:26:13.000Z,1
2023-05-04T03:27:17.000Z,1
2023-05-04T03:28:21.000Z,2
2023-05-04T03:29:25.000Z,2
2023-05-04T03:30:29.000Z,2
2023-05-04T03:31:34.000Z,3
2023-05-04T03:32:38.000Z,3
2023-05-04T03:33:42.000Z,3
2023-05-04T03:34:46.000Z,4
2023-05-04T03:35:50.000Z,4
2023-05-04T03:36:54.000Z,5
2023-05-04T03:37:58.000Z,5
2023-05-04T03:39:03.000Z,5
2023-05-04T03:40:07.000Z,6
2023-05-04T03:41:11.000Z,6
2023-05-04T03:42:15.000Z,7
2023-05-04T03:43:19.000Z,7
2023-05-04T03:44:23.000Z,8
2023-05-04T03:45:27.000Z,9
2023-05-04T03:46:31.000Z,9
2023-05-04T03:47:36.000Z,10
2023-05-04T03:48:40.000Z,11
2023-05-04T03:49:44.000Z,11
2023-05-04T03:50:48.000Z,12
2023-05-04T03:51:52.000Z,13
2023-05-04T03:52:56.000Z,14
2023-05-04T03:54:00.000Z,15
2023-05-04T03:55:05.000Z,15
2023-05-04T03:56:09.000Z,16
2023-05-04T03:57:13.000Z,17
2023-05-04T03:58:17.000Z,17
2023-05-04T03:59:21.000Z,17
2023-05-04T04:00:25.000Z,18
2023-05-04T04:01:29.000Z,19
2023-05-04T04:02:34.000Z,20
2023-05-04T04:03:38.000Z,21
2023-05-04T04:04:42.000Z,21
2023-05-04T04:05:46.000Z,22
2023-05-04T04:06:50.000Z,23
2023-05-04T04:07:54.000Z,24
2023-05-04T04:08:58.000Z,24
2023-05-04T04:10:03.000Z,26
2023-05-04T04:11:07.000Z,28
2023-05-04T04:12:11.000Z,30
2023-05-04T04:13:15.000Z,31
2023-05-04T04:14:19.000Z,32
2023-05-04T04:15:23.000Z,33
2023-05-04T04:16:27.000Z,34
2023-05-04T04:17:31.000Z,34
2023-05-04T04:18:36.000Z,34
2023-05-04T04:19:40.000Z,34
2023-05-04T04:20:44.000Z,34
2023-05-04T04:21:48.000Z,35
2023-05-04T04:22:52.000Z,36
2023-05-04T04:23:56.000Z,36
2023-05-04T04:25:00.000Z,37
2023-05-04T04:26:05.000Z,37
2023-05-04T04:27:09.000Z,38
2023-05-04T04:28:13.000Z,38
2023-05-04T04:29:17.000Z,39
2023-05-04T04:30:21.000Z,40
2023-05-04T04:31:25.000Z,41
2023-05-04T04:32:29.000Z,42
2023-05-04T04:33:34.000Z,42
2023-05-04T04:34:38.000Z,42
2023-05-04T04:35:42.000Z,43
2023-05-04T04:36:46.000Z,43
2023-05-04T04:37:50.000Z,44
2023-05-04T04:38:54.000Z,45
2023-05-04T04:39:59.000Z,45
2023-05-04T04:41:03.000Z,46
2023-05-04T04:42:07.000Z,46
2023-05-04T04:43:11.000Z,47
2023-05-04T04:44:15.000Z,47
2023-05-04T04:45:19.000Z,48
2023-05-04T04:46:24.000Z,48
2023-05-04T04:47:28.000Z,49
2023-05-04T04:48:32.000Z,50
2023-05-04T04:49:36.000Z,51
2023-05-04T04:50:40.000Z,51
2023-05-04T04:51:44.000Z,52
2023-05-04T04:52:49.000Z,53
2023-05-04T04:53:53.000Z,53
2023-05-04T04:54:57.000Z,53
2023-05-04T04:56:01.000Z,54
2023-05-04T04:57:05.000Z,54
2023-05-04T04:58:10.000Z,55
2023-05-04T04:59:14.000Z,57
2023-05-04T05:00:18.000Z,57
2023-05-04T05:01:22.000Z,55
2023-05-04T05:02:26.000Z,54
2023-05-04T05:03:30.000Z,55
2023-05-04T05:04:35.000Z,55
2023-05-04T05:05:39.000Z,55
2023-05-04T05:06:43.000Z,54
2023-05-04T05:07:47.000Z,54
2023-05-04T05:08:51.000Z,57
2023-05-04T05:09:55.000Z,58
2023-05-04T05:11:00.000Z,57
2023-05-04T05:12:04.000Z,59
2023-05-04T05:13:08.000Z,60
2023-05-04T05:14:12.000Z,60
2023-05-04T05:15:16.000Z,60
2023-05-04T05:16:20.000Z,60
2023-05-04T05:17:25.000Z,60
2023-05-04T05:18:29.000Z,60
2023-05-04T05:19:33.000Z,59
2023-05-04T05:20:37.000Z,60
2023-05-04T05:21:41.000Z,60
2023-05-04T05:22:45.000Z,60
2023-05-04T05:23:50.000Z,60
2023-05-04T05:24:54.000Z,61
2023-05-04T05:25:58.000Z,61
2023-05-04T05:27:02.000Z,61
2023-05-04T05:28:06.000Z,61
2023-05-04T05:29:10.000Z,62
2023-05-04T05:30:14.000Z,63
2023-05-04T05:31:19.000Z,64
2023-05-04T05:32:23.000Z,65
2023-05-04T05:33:27.000Z,65
2023-05-04T05:34:31.000Z,66
2023-05-04T05:35:35.000Z,67
2023-05-04T05:36:39.000Z,67
2023-05-04T05:37:43.000Z,68
2023-05-04T05:38:48.000Z,67
2023-05-04T05:39:52.000Z,68
2023-05-04T05:40:56.000Z,69
2023-05-04T05:42:00.000Z,72
2023-05-04T05:43:04.000Z,73
2023-05-04T05:44:08.000Z,75
2023-05-04T05:45:12.000Z,75
2023-05-04T05:46:17.000Z,75
2023-05-04T05:47:21.000Z,77
2023-05-04T05:48:25.000Z,78
2023-05-04T05:49:29.000Z,81
2023-05-04T05:50:33.000Z,78
2023-05-04T05:51:37.000Z,77
2023-05-04T05:52:41.000Z,74
2023-05-04T05:53:45.000Z,76
2023-05-04T05:54:50.000Z,77
2023-05-04T05:55:54.000Z,77
2023-05-04T05:56:58.000Z,77
2023-05-04T05:58:02.000Z,78
2023-05-04T05:59:06.000Z,81
2023-05-04T06:00:10.000Z,80
2023-05-04T06:01:14.000Z,81
2023-05-04T06:02:19.000Z,81
2023-05-04T06:03:23.000Z,81
2023-05-04T06:04:27.000Z,82
2023-05-04T06:05:31.000Z,84
2023-05-04T06:06:35.000Z,85
2023-05-04T06:07:39.000Z,85
2023-05-04T06:08:43.000Z,86
2023-05-04T06:09:48.000Z,85
2023-05-04T06:10:52.000Z,93
2023-05-04T06:11:56.000Z,95
2023-05-04T06:13:00.000Z,90
2023-05-04T06:14:04.000Z,90
2023-05-04T06:15:08.000Z,90
2023-05-04T06:16:12.000Z,92
2023-05-04T06:17:17.000Z,92
2023-05-04T06:18:21.000Z,92
2023-05-04T06:19:25.000Z,93
2023-05-04T06:20:29.000Z,92
2023-05-04T06:21:33.000Z,95
2023-05-04T06:22:37.000Z,95
2023-05-04T06:23:41.000Z,95
2023-05-04T06:24:45.000Z,98
2023-05-04T06:25:50.000Z,100
2023-05-04T06:26:54.000Z,107
2023-05-04T06:27:58.000Z,108
2023-05-04T06:29:02.000Z,104
2023-05-04T06:30:06.000Z,100
2023-05-04T06:31:10.000Z,101
2023-05-04T06:32:14.000Z,113
2023-05-04T06:33:19.000Z,114
2023-05-04T06:34:23.000Z,112
2023-05-04T06:35:27.000Z,103
2023-05-04T06:36:31.000Z,103
2023-05-04T06:37:35.000Z,107
2023-05-04T06:38:39.000Z,106
2023-05-04T06:39:43.000Z,108
2023-05-04T06:40:48.000Z,108
2023-05-04T06:41:52.000Z,106
2023-05-04T06:42:56.000Z,107
2023-05-04T06:44:00.000Z,111
2023-05-04T06:45:04.000Z,117
2023-05-04T06:46:08.000Z,117
2023-05-04T06:47:12.000Z,114
2023-05-04T06:48:16.000Z,114
2023-05-04T06:49:21.000Z,116
2023-05-04T06:50:25.000Z,119
2023-05-04T06:51:29.000Z,141
2023-05-04T06:52:33.000Z,154
2023-05-04T06:53:37.000Z,153
2023-05-04T06:54:41.000Z,147
2023-05-04T06:55:46.000Z,128
2023-05-04T06:56:50.000Z,136
2023-05-04T06:57:54.000Z,141
2023-05-04T06:58:58.000Z,136
2023-05-04T07:00:02.000Z,142
2023-05-04T07:01:06.000Z,134
2023-05-04T07:02:11.000Z,141
2023-05-04T07:03:15.000Z,138
2023-05-04T07:04:19.000Z,132
2023-05-04T07:05:23.000Z,131
2023-05-04T07:06:27.000Z,149
2023-05-04T07:07:31.000Z,169
2023-05-04T07:08:35.000Z,159
2023-05-04T07:09:40.000Z,134
2023-05-04T07:10:44.000Z,134
2023-05-04T07:11:48.000Z,135
2023-05-04T07:12:52.000Z,139
2023-05-04T07:13:56.000Z,145
2023-05-04T07:15:00.000Z,140
2023-05-04T07:16:04.000Z,153
2023-05-04T07:17:09.000Z,152
2023-05-04T07:18:13.000Z,143
2023-05-04T07:19:17.000Z,147
2023-05-04T07:20:21.000Z,145
2023-05-04T07:21:25.000Z,139
2023-05-04T07:22:29.000Z,137
2023-05-04T07:23:33.000Z,135
2023-05-04T07:24:38.000Z,136
2023-05-04T07:25:42.000Z,137
2023-05-04T07:26:46.000Z,139
2023-05-04T07:27:50.000Z,152
2023-05-04T07:28:54.000Z,154
2023-05-04T07:29:58.000Z,142
2023-05-04T07:31:02.000Z,144
2023-05-04T07:32:06.000Z,146
2023-05-04T07:33:11.000Z,146
2023-05-04T07:34:15.000Z,148
2023-05-04T07:35:19.000Z,148
2023-05-04T07:36:23.000Z,147
2023-05-04T07:37:27.000Z,146
2023-05-04T07:38:31.000Z,144
2023-05-04T07:39:35.000Z,145
2023-05-04T07:40:40.000Z,149
2023-05-04T07:41:44.000Z,151
2023-05-04T07:42:48.000Z,150
2023-05-04T07:43:52.000Z,151
2023-05-04T07:44:56.000Z,156
2023-05-04T07:46:00.000Z,158
2023-05-04T07:47:04.000Z,153
2023-05-04T07:48:08.000Z,148
2023-05-04T07:49:13.000Z,147
2023-05-04T07:50:17.000Z,150
2023-05-04T07:51:21.000Z,152
2023-05-04T07:52:25.000Z,153
2023-05-04T07:53:29.000Z,154
2023-05-04T07:54:33.000Z,156
2023-05-04T07:55:37.000Z,154
2023-05-04T07:56:42.000Z,158
2023-05-04T07:57:46.000Z,157
2023-05-04T07:58:50.000Z,163
2023-05-04T07:59:54.000Z,159
2023-05-04T08:00:58.000Z,158
2023-05-04T08:02:02.000Z,160
2023-05-04T08:03:06.000Z,184
2023-05-04T08:04:10.000Z,216
2023-05-04T08:05:15.000Z,177
2023-05-04T08:06:19.000Z,172
2023-05-04T08:07:23.000Z,179
2023-05-04T08:08:27.000Z,183
2023-05-04T08:09:31.000Z,218
2023-05-04T08:10:35.000Z,270
2023-05-04T08:11:39.000Z,349
2023-05-04T08:12:44.000Z,375
2023-05-04T08:13:48.000Z,372
2023-05-04T08:14:52.000Z,433
2023-05-04T08:15:56.000Z,446
2023-05-04T08:17:00.000Z,436
2023-05-04T08:18:04.000Z,451
2023-05-04T08:19:08.000Z,474
2023-05-04T08:20:13.000Z,499
2023-05-04T08:21:17.000Z,502
2023-05-04T08:22:21.000Z,528
2023-05-04T08:23:25.000Z,548
2023-05-04T08:24:29.000Z,555
2023-05-04T08:25:49.000Z,558
2023-05-04T08:26:53.000Z,550
2023-05-04T08:27:57.000Z,257
2023-05-04T08:29:01.000Z,491
2023-05-04T08:30:05.000Z,498
2023-05-04T08:31:09.000Z,478
2023-05-04T08:32:14.000Z,767
2023-05-04T08:33:18.000Z,518
2023-05-04T08:34:22.000Z,510
2023-05-04T08:35:26.000Z,503
2023-05-04T08:36:39.000Z,573
2023-05-04T08:37:43.000Z,562
2023-05-04T08:38:47.000Z,546
2023-05-04T08:39:52.000Z,532
2023-05-04T08:40:56.000Z,558
2023-05-04T08:42:06.000Z,544
2023-05-04T08:43:10.000Z,526
2023-05-04T08:44:14.000Z,509
2023-05-04T08:45:18.000Z,506
2023-05-04T08:46:23.000Z,550
2023-05-04T08:47:27.000Z,583
2023-05-04T08:48:31.000Z,586
2023-05-04T08:49:35.000Z,673
2023-05-04T08:50:39.000Z,616
2023-05-04T08:51:43.000Z,575
2023-05-04T08:52:48.000Z,581
2023-05-04T08:53:52.000Z,608
2023-05-04T08:54:56.000Z,635
2023-05-04T08:56:00.000Z,581
2023-05-04T08:57:04.000Z,547
2023-05-04T08:58:08.000Z,591
2023-05-04T08:59:12.000Z,604
2023-05-04T09:00:16.000Z,671
2023-05-04T09:01:21.000Z,616
2023-05-04T09:02:25.000Z,755
2023-05-04T09:03:29.000Z,696
2023-05-04T09:04:33.000Z,625
2023-05-04T09:05:37.000Z,574
2023-05-04T09:06:41.000Z,541
2023-05-04T09:07:45.000Z,605
2023-05-04T09:08:50.000Z,657
2023-05-04T09:09:54.000Z,607
2023-05-04T09:10:58.000Z,622
2023-05-04T09:12:02.000Z,630
2023-05-04T09:13:06.000Z,637
2023-05-04T09:14:10.000Z,621
2023-05-04T09:15:14.000Z,649
2023-05-04T09:16:19.000Z,720
2023-05-04T09:17:23.000Z,654
2023-05-04T09:18:27.000Z,622
2023-05-04T09:19:31.000Z,616
2023-05-04T09:20:35.000Z,614
2023-05-04T09:21:39.000Z,631
2023-05-04T09:22:43.000Z,624
2023-05-04T09:23:48.000Z,675
2023-05-04T09:24:52.000Z,668
2023-05-04T09:25:56.000Z,669
2023-05-04T09:27:00.000Z,628
2023-05-04T09:28:04.000Z,710
2023-05-04T09:29:08.000Z,662
2023-05-04T09:30:13.000Z,677
2023-05-04T09:31:17.000Z,708
2023-05-04T09:32:21.000Z,666
2023-05-04T09:33:25.000Z,592
2023-05-04T09:34:29.000Z,597
2023-05-04T09:35:33.000Z,652
2023-05-04T09:36:37.000Z,739
2023-05-04T09:37:42.000Z,706
2023-05-04T09:38:46.000Z,730
2023-05-04T09:39:50.000Z,693
2023-05-04T09:40:54.000Z,731
2023-05-04T09:41:58.000Z,622
2023-05-04T09:43:02.000Z,753
2023-05-04T09:44:06.000Z,1049
2023-05-04T09:45:10.000Z,830
2023-05-04T09:46:15.000Z,837
2023-05-04T09:47:19.000Z,742
2023-05-04T09:48:23.000Z,923
2023-05-04T09:49:27.000Z,816
2023-05-04T09:50:31.000Z,835
2023-05-04T09:51:35.000Z,859
2023-05-04T09:52:39.000Z,852
2023-05-04T09:53:44.000Z,739
2023-05-04T09:54:48.000Z,717
2023-05-04T09:55:52.000Z,797
2023-05-04T09:56:56.000Z,787
2023-05-04T09:58:00.000Z,682
2023-05-04T09:59:04.000Z,779
2023-05-04T10:00:08.000Z,798
2023-05-04T10:01:13.000Z,863
2023-05-04T10:02:17.000Z,904
2023-05-04T10:03:21.000Z,773
2023-05-04T10:04:25.000Z,650
2023-05-04T10:05:43.000Z,556
2023-05-04T10:06:54.000Z,557
2023-05-04T10:07:58.000Z,610
2023-05-04T10:09:02.000Z,619
2023-05-04T10:10:07.000Z,607
2023-05-04T10:11:11.000Z,644
2023-05-04T10:12:15.000Z,747
2023-05-04T10:13:19.000Z,828
2023-05-04T10:14:23.000Z,751
2023-05-04T10:15:27.000Z,729
2023-05-04T10:16:31.000Z,710
2023-05-04T10:17:36.000Z,743
2023-05-04T10:18:40.000Z,732
2023-05-04T10:19:44.000Z,659
2023-05-04T10:20:48.000Z,686
2023-05-04T10:21:52.000Z,1022
2023-05-04T10:22:56.000Z,922
2023-05-04T10:24:00.000Z,961
2023-05-04T10:25:05.000Z,877
2023-05-04T10:26:09.000Z,888
2023-05-04T10:27:13.000Z,899
2023-05-04T10:28:17.000Z,930
2023-05-04T10:29:21.000Z,1105
2023-05-04T10:30:25.000Z,848
2023-05-04T10:31:29.000Z,592
2023-05-04T10:32:34.000Z,546
2023-05-04T10:33:38.000Z,503
2023-05-04T10:34:42.000Z,558
2023-05-04T10:35:46.000Z,670
2023-05-04T10:36:50.000Z,762
2023-05-04T10:37:54.000Z,716
2023-05-04T10:38:58.000Z,649
2023-05-04T10:40:02.000Z,603
2023-05-04T10:41:07.000Z,729
2023-05-04T10:42:11.000Z,684
2023-05-04T10:43:15.000Z,719
2023-05-04T10:44:19.000Z,778
2023-05-04T10:45:23.000Z,797
2023-05-04T10:46:27.000Z,763
2023-05-04T10:47:31.000Z,728
2023-05-04T10:48:35.000Z,778
2023-05-04T10:49:40.000Z,781
2023-05-04T10:50:44.000Z,803
2023-05-04T10:51:48.000Z,826
2023-05-04T10:52:52.000Z,804
2023-05-04T10:53:56.000Z,755
2023-05-04T10:55:00.000Z,735
2023-05-04T10:56:04.000Z,746
2023-05-04T10:57:08.000Z,732
2023-05-04T10:58:13.000Z,781
2023-05-04T10:59:17.000Z,798
2023-05-04T11:00:21.000Z,753
2023-05-04T11:01:25.000Z,817
2023-05-04T11:02:29.000Z,801
2023-05-04T11:03:33.000Z,804
2023-05-04T11:04:37.000Z,827
2023-05-04T11:05:42.000Z,827
2023-05-04T11:06:46.000Z,778
2023-05-04T11:07:50.000Z,762
2023-05-04T11:08:54.000Z,712
2023-05-04T11:09:58.000Z,767
2023-05-04T11:11:02.000Z,709
2023-05-04T11:12:06.000Z,739
2023-05-04T11:13:11.000Z,749
2023-05-04T11:14:15.000Z,781
2023-05-04T11:15:19.000Z,768
2023-05-04T11:16:23.000Z,781
2023-05-04T11:17:27.000Z,805
2023-05-04T11:18:31.000Z,833
2023-05-04T11:19:35.000Z,830
2023-05-04T11:20:40.000Z,824
2023-05-04T11:21:44.000Z,778
2023-05-04T11:22:48.000Z,842
2023-05-04T11:23:52.000Z,796
2023-05-04T11:24:56.000Z,784
2023-05-04T11:26:00.000Z,730
2023-05-04T11:27:04.000Z,772
2023-05-04T11:28:08.000Z,738
2023-05-04T11:29:13.000Z,727
2023-05-04T11:30:17.000Z,783
2023-05-04T11:31:21.000Z,758
2023-05-04T11:32:25.000Z,761
2023-05-04T11:33:29.000Z,775
2023-05-04T11:34:33.000Z,770
2023-05-04T11:35:37.000Z,794
2023-05-04T11:36:42.000Z,773
2023-05-04T11:37:46.000Z,738
2023-05-04T11:38:50.000Z,736
2023-05-04T11:39:54.000Z,740
2023-05-04T11:40:58.000Z,698
2023-05-04T11:42:02.000Z,647
2023-05-04T11:43:07.000Z,666
2023-05-04T11:44:11.000Z,782
2023-05-04T11:45:15.000Z,805
2023-05-04T11:46:19.000Z,512
2023-05-04T11:47:23.000Z,783
2023-05-04T11:48:27.000Z,709
2023-05-04T11:49:31.000Z,716
2023-05-04T11:50:36.000Z,684
2023-05-04T11:51:40.000Z,778
2023-05-04T11:52:44.000Z,795
2023-05-04T11:53:48.000Z,818
2023-05-04T11:54:52.000Z,859
2023-05-04T11:55:56.000Z,825
2023-05-04T11:57:01.000Z,827
2023-05-04T11:58:05.000Z,798
2023-05-04T11:59:09.000Z,754
2023-05-04T12:00:14.000Z,798
2023-05-04T12:01:18.000Z,782
2023-05-04T12:02:22.000Z,784
2023-05-04T12:03:26.000Z,739
2023-05-04T12:04:30.000Z,696
2023-05-04T12:05:34.000Z,710
2023-05-04T12:06:38.000Z,697
2023-05-04T12:07:43.000Z,700
2023-05-04T12:08:47.000Z,756
2023-05-04T12:09:51.000Z,737
2023-05-04T12:10:55.000Z,671
2023-05-04T12:11:59.000Z,676
2023-05-04T12:13:03.000Z,659
2023-05-04T12:14:07.000Z,638
2023-05-04T12:15:12.000Z,624
2023-05-04T12:16:16.000Z,612
2023-05-04T12:17:20.000Z,606
2023-05-04T12:18:24.000Z,611
2023-05-04T12:19:28.000Z,598
2023-05-04T12:20:32.000Z,575
2023-05-04T12:21:36.000Z,526
2023-05-04T12:22:40.000Z,507
2023-05-04T12:23:45.000Z,510
2023-05-04T12:24:49.000Z,522
2023-05-04T12:25:53.000Z,505
2023-05-04T12:26:57.000Z,501
2023-05-04T12:28:01.000Z,484
2023-05-04T12:29:05.000Z,471
2023-05-04T12:30:09.000Z,460
2023-05-04T12:31:14.000Z,472
2023-05-04T12:32:18.000Z,471
2023-05-04T12:33:22.000Z,477
2023-05-04T12:34:26.000Z,496
2023-05-04T12:35:30.000Z,534
2023-05-04T12:36:34.000Z,596
2023-05-04T12:37:38.000Z,594
2023-05-04T12:38:42.000Z,621
2023-05-04T12:39:47.000Z,610
2023-05-04T12:40:51.000Z,591
2023-05-04T12:41:55.000Z,595
2023-05-04T12:42:59.000Z,593
2023-05-04T12:44:03.000Z,577
2023-05-04T12:45:07.000Z,538
2023-05-04T12:46:11.000Z,545
2023-05-04T12:47:15.000Z,534
2023-05-04T12:48:20.000Z,540
2023-05-04T12:49:24.000Z,528
2023-05-04T12:50:28.000Z,519
2023-05-04T12:51:32.000Z,524
2023-05-04T12:52:36.000Z,767
2023-05-04T12:53:40.000Z,534
2023-05-04T12:54:44.000Z,550
2023-05-04T12:55:48.000Z,569
2023-05-04T12:56:53.000Z,575
2023-05-04T12:57:57.000Z,612
2023-05-04T12:59:01.000Z,661
2023-05-04T13:00:05.000Z,647
2023-05-04T13:01:09.000Z,640
2023-05-04T13:02:13.000Z,649
2023-05-04T13:03:17.000Z,632
2023-05-04T13:04:22.000Z,598
2023-05-04T13:05:26.000Z,597
2023-05-04T13:06:30.000Z,614
2023-05-04T13:07:34.000Z,633
2023-05-04T13:08:38.000Z,621
2023-05-04T13:09:42.000Z,621
2023-05-04T13:10:47.000Z,632
2023-05-04T13:11:51.000Z,625
2023-05-04T13:12:55.000Z,599
2023-05-04T13:13:59.000Z,564
2023-05-04T13:15:03.000Z,586
2023-05-04T13:16:07.000Z,569
2023-05-04T13:17:11.000Z,575
2023-05-04T13:18:16.000Z,745
2023-05-04T13:19:20.000Z,569
2023-05-04T13:20:24.000Z,575
2023-05-04T13:21:28.000Z,558
2023-05-04T13:22:46.000Z,260
2023-05-04T13:23:51.000Z,503
2023-05-04T13:24:55.000Z,466
2023-05-04T13:25:59.000Z,484
2023-05-04T13:27:03.000Z,488
2023-05-04T13:28:07.000Z,502
2023-05-04T13:29:12.000Z,489
2023-05-04T13:30:16.000Z,495
2023-05-04T13:31:20.000Z,477
2023-05-04T13:32:24.000Z,459
2023-05-04T13:33:28.000Z,438
2023-05-04T13:34:32.000Z,423
2023-05-04T13:35:37.000Z,427
2023-05-04T13:36:41.000Z,428
2023-05-04T13:37:45.000Z,420
2023-05-04T13:38:49.000Z,417
2023-05-04T13:39:53.000Z,412
2023-05-04T13:40:57.000Z,422
2023-05-04T13:42:02.000Z,436
2023-05-04T13:43:06.000Z,436
2023-05-04T13:44:10.000Z,438
2023-05-04T13:45:14.000Z,421
2023-05-04T13:46:18.000Z,416
2023-05-04T13:47:22.000Z,415
2023-05-04T13:48:27.000Z,419
2023-05-04T13:49:31.000Z,422
2023-05-04T13:50:35.000Z,425
2023-05-04T13:51:39.000Z,412
2023-05-04T13:52:43.000Z,389
2023-05-04T13:53:47.000Z,387
2023-05-04T13:54:51.000Z,366
2023-05-04T13:55:56.000Z,356
2023-05-04T13:57:00.000Z,351
2023-05-04T13:58:04.000Z,351
2023-05-04T13:59:08.000Z,355
2023-05-04T14:00:12.000Z,364
2023-05-04T14:01:16.000Z,364
2023-05-04T14:02:21.000Z,362
2023-05-04T14:03:25.000Z,368
2023-05-04T14:04:29.000Z,365
2023-05-04T14:05:33.000Z,365
2023-05-04T14:06:37.000Z,374
2023-05-04T14:07:41.000Z,388
2023-05-04T14:08:45.000Z,392
2023-05-04T14:09:50.000Z,384
2023-05-04T14:10:54.000Z,379
2023-05-04T14:11:58.000Z,373
2023-05-04T14:13:02.000Z,373
2023-05-04T14:14:06.000Z,369
2023-05-04T14:15:10.000Z,373
2023-05-04T14:16:14.000Z,372
2023-05-04T14:17:18.000Z,364
2023-05-04T14:18:23.000Z,352
2023-05-04T14:19:27.000Z,347
2023-05-04T14:20:31.000Z,352
2023-05-04T14:21:35.000Z,360
2023-05-04T14:22:39.000Z,357
2023-05-04T14:23:43.000Z,358
2023-05-04T14:24:47.000Z,365
2023-05-04T14:25:51.000Z,388
2023-05-04T14:26:56.000Z,403
2023-05-04T14:28:00.000Z,418
2023-05-04T14:29:04.000Z,413
2023-05-04T14:30:08.000Z,428
2023-05-04T14:31:12.000Z,467
2023-05-04T14:32:16.000Z,465
2023-05-04T14:33:20.000Z,482
2023-05-04T14:34:25.000Z,470
2023-05-04T14:35:29.000Z,479
2023-05-04T14:36:33.000Z,465
2023-05-04T14:37:37.000Z,459
2023-05-04T14:38:41.000Z,468
2023-05-04T14:39:45.000Z,486
2023-05-04T14:40:49.000Z,460
2023-05-04T14:41:53.000Z,451
2023-05-04T14:42:58.000Z,471
2023-05-04T14:44:02.000Z,477
2023-05-04T14:45:06.000Z,417
2023-05-04T14:46:10.000Z,387
2023-05-04T14:47:14.000Z,361
2023-05-04T14:48:18.000Z,311
2023-05-04T14:49:22.000Z,332
2023-05-04T14:50:27.000Z,370
2023-05-04T14:51:31.000Z,377
2023-05-04T14:52:35.000Z,395
2023-05-04T14:53:39.000Z,395
2023-05-04T14:54:43.000Z,288
2023-05-04T14:55:47.000Z,263
2023-05-04T14:56:51.000Z,284
2023-05-04T14:57:56.000Z,294
2023-05-04T14:59:00.000Z,293
2023-05-04T15:00:04.000Z,305
2023-05-04T15:01:08.000Z,271
2023-05-04T15:02:12.000Z,236
2023-05-04T15:03:16.000Z,220
2023-05-04T15:04:20.000Z,217
2023-05-04T15:05:24.000Z,213